createdAt,value
2023-02-08T00:01:08.781Z,-2.40
2023-02-08T00:03:36.900Z,-2.30
2023-02-08T00:06:05.496Z,-2.30
2023-02-08T00:08:35.438Z,-2.30
2023-02-08T00:11:03.573Z,-2.30
2023-02-08T00:13:32.534Z,-2.30
2023-02-08T00:16:00.523Z,-2.30
2023-02-08T00:18:29.043Z,-2.30
2023-02-08T00:20:57.310Z,-2.40
2023-02-08T00:23:25.789Z,-2.40
2023-02-08T00:25:55.102Z,-2.40
2023-02-08T00:28:23.143Z,-2.40
2023-02-08T00:30:51.247Z,-2.40
2023-02-08T00:33:19.235Z,-2.40
2023-02-08T00:35:47.245Z,-2.40
2023-02-08T00:38:15.277Z,-2.40
2023-02-08T00:40:43.590Z,-2.40
2023-02-08T00:43:12.933Z,-2.40
2023-02-08T00:45:41.217Z,-2.40
2023-02-08T00:48:09.173Z,-2.40
2023-02-08T00:50:37.426Z,-2.40
2023-02-08T00:53:05.522Z,-2.50
2023-02-08T00:55:33.495Z,-2.50
2023-02-08T00:58:01.473Z,-2.50
2023-02-08T01:00:30.872Z,-2.50
2023-02-08T01:02:58.894Z,-2.50
2023-02-08T01:05:26.918Z,-2.50
2023-02-08T01:07:54.885Z,-2.40
2023-02-08T01:10:22.945Z,-2.40
2023-02-08T01:12:50.894Z,-2.50
2023-02-08T01:15:19.052Z,-2.50
2023-02-08T01:17:48.462Z,-2.60
2023-02-08T01:20:16.605Z,-2.60
2023-02-08T01:22:44.533Z,-2.60
2023-02-08T01:25:12.492Z,-2.60
2023-02-08T01:27:40.464Z,-2.60
2023-02-08T01:30:09.892Z,-2.60
2023-02-08T01:32:37.973Z,-2.60
2023-02-08T01:35:08.069Z,-2.70
2023-02-08T01:37:36.051Z,-2.70
2023-02-08T01:40:04.104Z,-2.70
2023-02-08T01:42:32.186Z,-2.70
2023-02-08T01:45:23.353Z,-2.70
2023-02-08T01:47:55.277Z,-2.70
2023-02-08T01:50:30.773Z,-2.60
2023-02-08T01:52:59.303Z,-2.60
2023-02-08T01:55:31.003Z,-2.70
2023-02-08T01:58:03.695Z,-2.70
2023-02-08T02:00:33.036Z,-2.70
2023-02-08T02:03:02.672Z,-2.70
2023-02-08T02:05:36.552Z,-2.70
2023-02-08T02:08:05.741Z,-2.70
2023-02-08T02:10:36.143Z,-2.70
2023-02-08T02:13:07.506Z,-2.70
2023-02-08T02:15:35.964Z,-2.70
2023-02-08T02:18:06.020Z,-2.70
2023-02-08T02:20:48.582Z,-2.80
2023-02-08T02:23:40.649Z,-2.80
2023-02-08T02:26:50.805Z,-2.80
2023-02-08T02:29:49.198Z,-2.80
2023-02-08T02:32:32.953Z,-2.80
2023-02-08T02:35:06.101Z,-2.80
2023-02-08T02:37:44.984Z,-2.80
2023-02-08T02:40:22.124Z,-2.80
2023-02-08T02:43:18.981Z,-2.80
2023-02-08T02:45:54.741Z,-2.90
2023-02-08T02:48:31.957Z,-2.90
2023-02-08T02:51:04.524Z,-2.90
2023-02-08T02:53:38.684Z,-2.90
2023-02-08T02:56:11.175Z,-2.90
2023-02-08T02:58:41.077Z,-2.90
2023-02-08T03:01:09.047Z,-2.90
2023-02-08T03:03:38.511Z,-2.90
2023-02-08T03:06:10.631Z,-2.90
2023-02-08T03:09:08.754Z,-2.90
2023-02-08T03:11:38.018Z,-2.90
2023-02-08T03:14:44.858Z,-2.90
2023-02-08T03:17:31.584Z,-2.90
2023-02-08T03:20:08.197Z,-2.90
2023-02-08T03:22:45.409Z,-2.90
2023-02-08T03:25:18.945Z,-2.90
2023-02-08T03:27:53.934Z,-2.90
2023-02-08T03:30:28.587Z,-2.90
2023-02-08T03:33:01.269Z,-3.00
2023-02-08T03:35:34.517Z,-3.00
2023-02-08T03:38:06.856Z,-3.00
2023-02-08T03:40:38.910Z,-3.00
2023-02-08T03:43:14.012Z,-3.00
2023-02-08T03:45:47.648Z,-3.00
2023-02-08T03:48:18.525Z,-3.00
2023-02-08T03:50:51.758Z,-3.00
2023-02-08T03:53:22.856Z,-3.00
2023-02-08T03:55:56.335Z,-3.00
2023-02-08T03:58:27.773Z,-3.00
2023-02-08T04:00:59.925Z,-3.00
2023-02-08T04:03:30.711Z,-3.00
2023-02-08T04:06:00.644Z,-3.00
2023-02-08T04:08:28.765Z,-3.00
2023-02-08T04:10:56.785Z,-3.00
2023-02-08T04:13:24.767Z,-3.10
2023-02-08T04:15:52.738Z,-3.10
2023-02-08T04:18:20.745Z,-3.10
2023-02-08T04:20:48.695Z,-3.10
2023-02-08T04:23:18.025Z,-3.10
2023-02-08T04:25:45.963Z,-3.10
2023-02-08T04:28:14.213Z,-3.10
2023-02-08T04:30:42.541Z,-3.10
2023-02-08T04:33:13.008Z,-3.10
2023-02-08T04:35:40.989Z,-3.10
2023-02-08T04:38:08.990Z,-3.10
2023-02-08T04:40:38.450Z,-3.10
2023-02-08T04:43:06.556Z,-3.10
2023-02-08T04:45:34.570Z,-3.10
2023-02-08T04:48:03.864Z,-3.10
2023-02-08T04:50:31.931Z,-3.10
2023-02-08T04:55:54.611Z,-3.20
2023-02-08T04:58:22.921Z,-3.10
2023-02-08T05:00:50.976Z,-3.10
2023-02-08T05:03:18.957Z,-3.10
2023-02-08T05:05:46.943Z,-3.10
2023-02-08T05:08:14.946Z,-3.10
2023-02-08T05:10:45.938Z,-3.10
2023-02-08T05:13:15.361Z,-3.10
2023-02-08T05:15:43.387Z,-3.10
2023-02-08T05:18:11.435Z,-3.10
2023-02-08T05:20:39.730Z,-3.20
2023-02-08T05:23:07.976Z,-3.20
2023-02-08T05:25:35.965Z,-3.20
2023-02-08T05:28:04.564Z,-3.20
2023-02-08T05:30:33.961Z,-3.20
2023-02-08T05:33:02.008Z,-3.20
2023-02-08T05:35:30.007Z,-3.20
2023-02-08T05:37:57.946Z,-3.10
2023-02-08T05:40:25.946Z,-3.10
2023-02-08T05:42:53.946Z,-3.10
2023-02-08T05:45:21.994Z,-3.10
2023-02-08T05:47:51.393Z,-3.10
2023-02-08T05:50:19.568Z,-3.10
2023-02-08T05:52:47.652Z,-3.20
2023-02-08T05:55:15.656Z,-3.20
2023-02-08T05:57:43.595Z,-3.20
2023-02-08T06:00:12.765Z,-3.20
2023-02-08T06:02:40.829Z,-3.20
2023-02-08T06:05:10.498Z,-3.20
2023-02-08T06:07:38.479Z,-3.20
2023-02-08T06:10:07.733Z,-3.20
2023-02-08T06:12:36.229Z,-3.20
2023-02-08T06:15:04.359Z,-3.20
2023-02-08T06:17:32.349Z,-3.20
2023-02-08T06:20:00.346Z,-3.20
2023-02-08T06:22:29.731Z,-3.20
2023-02-08T06:24:57.745Z,-3.20
2023-02-08T06:27:25.720Z,-3.20
2023-02-08T06:29:53.695Z,-3.20
2023-02-08T06:32:21.852Z,-3.20
2023-02-08T06:34:51.379Z,-3.20
2023-02-08T06:37:19.581Z,-3.20
2023-02-08T06:39:48.909Z,-3.20
2023-02-08T06:42:16.904Z,-3.30
2023-02-08T06:44:54.378Z,-3.30
2023-02-08T06:47:22.938Z,-3.30
2023-02-08T06:49:51.050Z,-3.20
2023-02-08T06:52:19.281Z,-3.20
2023-02-08T06:54:48.780Z,-3.20
2023-02-08T06:57:16.803Z,-3.20
2023-02-08T06:59:44.779Z,-3.20
2023-02-08T07:02:14.806Z,-3.20
2023-02-08T07:04:43.075Z,-3.20
2023-02-08T07:07:11.111Z,-3.20
2023-02-08T07:09:39.878Z,-3.20
2023-02-08T07:12:10.413Z,-3.20
2023-02-08T07:14:41.082Z,-3.20
2023-02-08T07:17:09.480Z,-3.20
2023-02-08T07:19:37.542Z,-3.10
2023-02-08T07:22:08.248Z,-3.10
2023-02-08T07:24:37.339Z,-3.10
2023-02-08T07:27:06.980Z,-3.10
2023-02-08T07:29:36.754Z,-3.00
2023-02-08T07:32:06.620Z,-3.00
2023-02-08T07:34:37.319Z,-3.00
2023-02-08T07:37:05.817Z,-2.90
2023-02-08T07:39:33.895Z,-2.90
2023-02-08T07:42:01.905Z,-2.80
2023-02-08T07:44:29.890Z,-2.80
2023-02-08T07:46:59.294Z,-2.80
2023-02-08T07:49:27.309Z,-2.70
2023-02-08T07:51:55.367Z,-2.70
2023-02-08T07:54:23.496Z,-2.60
2023-02-08T07:56:51.484Z,-2.60
2023-02-08T07:59:19.523Z,-2.60
2023-02-08T08:01:47.559Z,-2.50
2023-02-08T08:04:16.952Z,-2.50
2023-02-08T08:06:46.518Z,-2.40
2023-02-08T08:09:15.652Z,-2.40
2023-02-08T08:11:43.617Z,-2.40
2023-02-08T08:14:11.581Z,-2.30
2023-02-08T08:16:40.496Z,-2.20
2023-02-08T08:19:08.489Z,-2.20
2023-02-08T08:21:37.918Z,-2.20
2023-02-08T08:24:06.033Z,-2.10
2023-02-08T08:26:35.231Z,-2.10
2023-02-08T08:29:03.311Z,-2.00
2023-02-08T08:31:31.656Z,-2.00
2023-02-08T08:33:59.647Z,-2.00
2023-02-08T08:36:27.622Z,-1.90
2023-02-08T08:38:56.961Z,-1.90
2023-02-08T08:41:27.202Z,-1.80
2023-02-08T08:43:55.258Z,-1.80
2023-02-08T08:46:23.328Z,-1.70
2023-02-08T08:48:52.030Z,-1.70
2023-02-08T08:51:20.063Z,-1.70
2023-02-08T08:53:48.055Z,-1.60
2023-02-08T08:56:17.410Z,-1.60
2023-02-08T08:58:45.427Z,-1.50
2023-02-08T09:01:14.039Z,-1.50
2023-02-08T09:03:42.095Z,-1.40
2023-02-08T09:06:10.110Z,-1.40
2023-02-08T09:08:38.275Z,-1.40
2023-02-08T09:11:07.736Z,-1.40
2023-02-08T09:13:37.632Z,-1.30
2023-02-08T09:16:09.575Z,-1.30
2023-02-08T09:18:37.890Z,-1.30
2023-02-08T09:21:10.500Z,-1.30
2023-02-08T09:23:39.124Z,-1.30
2023-02-08T09:26:09.562Z,-1.20
2023-02-08T09:28:39.070Z,-1.20
2023-02-08T09:31:10.606Z,-1.10
2023-02-08T09:33:38.763Z,-1.10
2023-02-08T09:36:08.489Z,-1.00
2023-02-08T09:38:37.305Z,-1.00
2023-02-08T09:41:25.610Z,-0.90
2023-02-08T09:44:09.184Z,-0.90
2023-02-08T09:46:40.579Z,-0.80
2023-02-08T09:49:15.433Z,-0.80
2023-02-08T09:51:47.674Z,-0.70
2023-02-08T09:54:20.035Z,-0.60
2023-02-08T09:56:50.100Z,-0.60
2023-02-08T09:59:23.917Z,-0.50
2023-02-08T10:01:54.883Z,-0.40
2023-02-08T10:04:29.129Z,-0.40
2023-02-08T10:06:57.435Z,-0.30
2023-02-08T10:09:27.975Z,-0.30
2023-02-08T10:12:07.797Z,-0.20
2023-02-08T10:14:53.118Z,-0.10
2023-02-08T10:17:46.195Z,-0.10
2023-02-08T10:20:41.613Z,-0.10
2023-02-08T10:23:25.765Z,0.00
2023-02-08T10:26:15.838Z,0.00
2023-02-08T10:29:16.466Z,0.10
2023-02-08T10:31:58.384Z,0.10
2023-02-08T10:34:37.209Z,0.20
2023-02-08T10:37:14.317Z,0.20
2023-02-08T10:39:42.731Z,0.30
2023-02-08T10:42:16.327Z,0.30
2023-02-08T10:44:57.494Z,0.30
2023-02-08T10:47:39.862Z,0.40
2023-02-08T10:50:15.182Z,0.40
2023-02-08T10:52:43.196Z,0.50
2023-02-08T10:55:16.262Z,0.60
2023-02-08T10:57:47.901Z,0.60
2023-02-08T11:00:21.319Z,0.70
2023-02-08T11:02:53.105Z,0.70
2023-02-08T11:05:32.022Z,0.80
2023-02-08T11:08:08.153Z,0.90
2023-02-08T11:10:36.622Z,0.90
2023-02-08T11:13:07.903Z,1.00
2023-02-08T11:15:40.935Z,1.00
2023-02-08T11:18:21.262Z,1.00
2023-02-08T11:20:51.087Z,1.00
2023-02-08T11:23:23.752Z,1.10
2023-02-08T11:25:52.358Z,1.10
2023-02-08T11:28:26.664Z,1.20
2023-02-08T11:31:03.446Z,1.20
2023-02-08T11:33:32.959Z,1.20
2023-02-08T11:36:05.353Z,1.20
2023-02-08T11:38:36.381Z,1.30
2023-02-08T11:41:14.274Z,1.30
2023-02-08T11:43:42.759Z,1.40
2023-02-08T11:46:12.157Z,1.40
2023-02-08T11:48:45.566Z,1.40
2023-02-08T11:51:24.423Z,1.40
2023-02-08T11:53:52.429Z,1.40
2023-02-08T11:56:22.820Z,1.50
2023-02-08T11:59:03.298Z,1.50
2023-02-08T12:01:32.918Z,1.50
2023-02-08T12:04:05.473Z,1.60
2023-02-08T12:06:59.994Z,1.60
2023-02-08T12:09:43.381Z,1.70
2023-02-08T12:12:20.013Z,1.70
2023-02-08T12:15:00.163Z,1.80
2023-02-08T12:17:48.181Z,1.80
2023-02-08T12:20:38.470Z,1.80
2023-02-08T12:23:35.112Z,1.80
2023-02-08T12:26:13.617Z,1.90
2023-02-08T12:28:52.879Z,1.90
2023-02-08T12:31:29.362Z,1.90
2023-02-08T12:34:06.996Z,2.00
2023-02-08T12:37:15.946Z,2.00
2023-02-08T12:40:12.922Z,2.00
2023-02-08T12:42:53.111Z,2.00
2023-02-08T12:45:55.704Z,2.00
2023-02-08T12:48:37.558Z,2.00
2023-02-08T12:51:16.814Z,2.10
2023-02-08T12:53:51.860Z,2.10
2023-02-08T12:56:23.293Z,2.10
2023-02-08T12:58:59.169Z,2.10
2023-02-08T13:01:33.451Z,2.20
2023-02-08T13:04:07.256Z,2.20
2023-02-08T13:06:42.579Z,2.20
2023-02-08T13:09:21.555Z,2.20
2023-02-08T13:11:53.101Z,2.20
2023-02-08T13:14:31.361Z,2.20
2023-02-08T13:17:05.550Z,2.20
2023-02-08T13:19:41.996Z,2.20
2023-02-08T13:22:15.595Z,2.20
2023-02-08T13:24:50.377Z,2.30
2023-02-08T13:27:22.551Z,2.30
2023-02-08T13:29:52.872Z,2.30
2023-02-08T13:32:29.518Z,2.30
2023-02-08T13:35:02.580Z,2.30
2023-02-08T13:37:32.948Z,2.30
2023-02-08T13:40:06.458Z,2.30
2023-02-08T13:42:38.232Z,2.30
2023-02-08T13:45:09.282Z,2.30
2023-02-08T13:47:45.175Z,2.40
2023-02-08T13:50:50.828Z,2.40
2023-02-08T13:53:20.479Z,2.30
2023-02-08T13:55:59.719Z,2.30
2023-02-08T13:58:39.385Z,2.30
2023-02-08T14:01:18.660Z,2.30
2023-02-08T14:04:25.045Z,2.40
2023-02-08T14:06:57.463Z,2.40
2023-02-08T14:09:29.601Z,2.40
2023-02-08T14:12:03.270Z,2.40
2023-02-08T14:14:34.772Z,2.40
2023-02-08T14:17:22.014Z,2.30
2023-02-08T14:19:59.741Z,2.30
2023-02-08T14:22:29.851Z,2.30
2023-02-08T14:25:05.678Z,2.30
2023-02-08T14:27:39.566Z,2.20
2023-02-08T14:30:10.083Z,2.20
2023-02-08T14:32:40.716Z,2.20
2023-02-08T14:35:19.058Z,2.10
2023-02-08T14:37:47.533Z,2.20
2023-02-08T14:40:36.179Z,2.10
2023-02-08T14:43:31.083Z,2.10
2023-02-08T14:46:35.121Z,2.10
2023-02-08T14:49:06.328Z,2.10
2023-02-08T14:51:38.031Z,2.00
2023-02-08T14:54:18.530Z,2.00
2023-02-08T14:56:54.795Z,2.00
2023-02-08T14:59:27.878Z,1.90
2023-02-08T15:01:59.725Z,2.00
2023-02-08T15:04:28.872Z,1.90
2023-02-08T15:07:22.742Z,1.90
2023-02-08T15:09:50.921Z,1.90
2023-02-08T15:12:25.943Z,1.90
2023-02-08T15:14:57.645Z,1.80
2023-02-08T15:17:35.387Z,1.80
2023-02-08T15:20:06.930Z,1.80
2023-02-08T15:22:37.189Z,1.80
2023-02-08T15:25:22.216Z,1.70
2023-02-08T15:27:52.688Z,1.70
2023-02-08T15:30:32.728Z,1.70
2023-02-08T15:33:02.258Z,1.70
2023-02-08T15:35:32.407Z,1.60
2023-02-08T15:38:00.697Z,1.60
2023-02-08T15:40:30.534Z,1.60
2023-02-08T15:43:05.234Z,1.50
2023-02-08T15:45:35.024Z,1.50
2023-02-08T15:48:03.512Z,1.50
2023-02-08T15:50:33.356Z,1.50
2023-02-08T15:53:03.861Z,1.40
2023-02-08T15:55:35.134Z,1.40
2023-02-08T15:58:07.992Z,1.30
2023-02-08T16:00:38.880Z,1.30
2023-02-08T16:03:10.108Z,1.20
2023-02-08T16:05:39.064Z,1.20
2023-02-08T16:08:08.111Z,1.10
2023-02-08T16:10:43.616Z,1.10
2023-02-08T16:13:19.756Z,1.00
2023-02-08T16:15:57.996Z,1.00
2023-02-08T16:18:40.624Z,0.80
2023-02-08T16:21:22.187Z,0.80
2023-02-08T16:23:52.045Z,0.70
2023-02-08T16:26:23.255Z,0.70
2023-02-08T16:28:58.105Z,0.60
2023-02-08T16:31:30.554Z,0.60
2023-02-08T16:34:01.560Z,0.50
2023-02-08T16:36:34.563Z,0.50
2023-02-08T16:39:23.889Z,0.50
2023-02-08T16:42:14.976Z,0.40
2023-02-08T16:45:13.713Z,0.30
2023-02-08T16:47:44.854Z,0.30
2023-02-08T16:50:16.145Z,0.30
2023-02-08T16:52:44.314Z,0.20
2023-02-08T16:55:19.214Z,0.20
2023-02-08T16:57:50.278Z,0.20
2023-02-08T17:00:22.060Z,0.10
2023-02-08T17:02:52.574Z,0.10
2023-02-08T17:05:22.202Z,0.10
2023-02-08T17:07:50.429Z,0.10
2023-02-08T17:10:23.818Z,0.00
2023-02-08T17:12:52.978Z,0.00
2023-02-08T17:15:24.062Z,0.00
2023-02-08T17:17:54.122Z,0.00
2023-02-08T17:20:23.974Z,0.00
2023-02-08T17:22:53.172Z,0.00
2023-02-08T17:25:21.727Z,-0.10
2023-02-08T17:27:53.119Z,-0.10
2023-02-08T17:30:25.920Z,-0.20
2023-02-08T17:32:56.176Z,-0.20
2023-02-08T17:35:25.288Z,-0.20
2023-02-08T17:37:54.160Z,-0.20
2023-02-08T17:40:23.823Z,-0.30
2023-02-08T17:42:53.546Z,-0.30
2023-02-08T17:45:22.085Z,-0.30
2023-02-08T17:47:50.671Z,-0.30
2023-02-08T17:50:20.427Z,-0.40
2023-02-08T17:52:49.190Z,-0.30
2023-02-08T17:55:18.865Z,-0.40
2023-02-08T17:57:47.673Z,-0.40
2023-02-08T18:00:18.577Z,-0.40
2023-02-08T18:02:47.880Z,-0.40
2023-02-08T18:05:16.872Z,-0.40
2023-02-08T18:07:46.523Z,-0.40
2023-02-08T18:10:15.658Z,-0.50
2023-02-08T18:12:44.211Z,-0.50
2023-02-08T18:15:15.419Z,-0.50
2023-02-08T18:17:44.402Z,-0.50
2023-02-08T18:20:14.747Z,-0.50
2023-02-08T18:22:43.388Z,-0.50
2023-02-08T18:25:14.328Z,-0.60
2023-02-08T18:27:42.780Z,-0.60
2023-02-08T18:30:12.618Z,-0.60
2023-02-08T18:32:40.835Z,-0.60
2023-02-08T18:35:09.432Z,-0.60
2023-02-08T18:37:38.399Z,-0.60
2023-02-08T18:40:09.084Z,-0.60
2023-02-08T18:42:38.714Z,-0.60
2023-02-08T18:45:07.254Z,-0.70
2023-02-08T18:47:36.487Z,-0.70
2023-02-08T18:50:05.251Z,-0.70
2023-02-08T18:52:33.346Z,-0.70
2023-02-08T18:55:01.430Z,-0.70
2023-02-08T18:57:29.482Z,-0.70
2023-02-08T18:59:58.923Z,-0.80
2023-02-08T19:02:27.468Z,-0.80
2023-02-08T19:04:55.513Z,-0.80
2023-02-08T19:07:23.722Z,-0.80
2023-02-08T19:09:51.794Z,-0.80
2023-02-08T19:12:21.067Z,-0.80
2023-02-08T19:14:50.938Z,-0.70
2023-02-08T19:17:20.726Z,-0.70
2023-02-08T19:19:49.033Z,-0.70
2023-02-08T19:22:17.241Z,-0.70
2023-02-08T19:24:45.238Z,-0.70
2023-02-08T19:27:13.304Z,-0.70
2023-02-08T19:29:41.397Z,-0.70
2023-02-08T19:32:09.443Z,-0.70
2023-02-08T19:34:38.924Z,-0.70
2023-02-08T19:37:06.969Z,-0.80
2023-02-08T19:39:35.049Z,-0.80
2023-02-08T19:42:03.147Z,-0.80
2023-02-08T19:44:31.215Z,-0.80
2023-02-08T19:47:00.140Z,-0.90
2023-02-08T19:49:28.491Z,-0.80
2023-02-08T19:51:58.261Z,-0.90
2023-02-08T19:54:26.544Z,-0.90
2023-02-08T19:56:55.901Z,-0.90
2023-02-08T19:59:26.008Z,-1.00
2023-02-08T20:01:54.706Z,-1.00
2023-02-08T20:04:23.039Z,-1.00
2023-02-08T20:06:52.582Z,-1.00
2023-02-08T20:09:22.227Z,-1.00
2023-02-08T20:11:57.188Z,-1.00
2023-02-08T20:14:26.612Z,-1.00
2023-02-08T20:16:54.810Z,-1.00
2023-02-08T20:19:22.870Z,-1.00
2023-02-08T20:21:50.883Z,-1.00
2023-02-08T20:24:19.106Z,-1.00
2023-02-08T20:26:49.722Z,-1.00
2023-02-08T20:29:18.264Z,-1.00
2023-02-08T20:31:48.387Z,-1.00
2023-02-08T20:34:20.916Z,-1.10
2023-02-08T20:37:05.796Z,-1.10
2023-02-08T20:39:35.401Z,-1.10
2023-02-08T20:42:05.524Z,-1.10
2023-02-08T20:44:33.638Z,-1.10
2023-02-08T20:47:01.940Z,-1.10
2023-02-08T20:49:32.180Z,-1.10
2023-02-08T20:52:00.436Z,-1.10
2023-02-08T20:54:28.492Z,-1.10
2023-02-08T20:56:56.571Z,-1.10
2023-02-08T20:59:25.971Z,-1.10
2023-02-08T21:01:53.975Z,-1.10
2023-02-08T21:04:23.685Z,-1.10
2023-02-08T21:06:52.073Z,-1.20
2023-02-08T21:09:21.422Z,-1.20
2023-02-08T21:11:50.620Z,-1.20
2023-02-08T21:14:21.008Z,-1.20
2023-02-08T21:16:52.319Z,-1.20
2023-02-08T21:19:21.408Z,-1.20
2023-02-08T21:21:51.976Z,-1.20
2023-02-08T21:24:20.362Z,-1.30
2023-02-08T21:26:48.409Z,-1.30
2023-02-08T21:29:16.620Z,-1.30
2023-02-08T21:31:44.782Z,-1.30
2023-02-08T21:34:14.544Z,-1.30
2023-02-08T21:36:42.555Z,-1.40
2023-02-08T21:39:10.844Z,-1.40
2023-02-08T21:41:39.099Z,-1.40
2023-02-08T21:44:08.332Z,-1.30
2023-02-08T21:46:36.925Z,-1.30
2023-02-08T21:49:22.620Z,-1.40
2023-02-08T21:52:09.640Z,-1.40
2023-02-08T21:54:44.373Z,-1.40
2023-02-08T21:57:16.365Z,-1.40
2023-02-08T21:59:44.480Z,-1.40
2023-02-08T22:02:15.877Z,-1.40
2023-02-08T22:05:01.909Z,-1.40
2023-02-08T22:07:40.536Z,-1.50
2023-02-08T22:10:09.145Z,-1.50
2023-02-08T22:12:37.170Z,-1.50
2023-02-08T22:15:05.556Z,-1.50
2023-02-08T22:17:33.583Z,-1.50
2023-02-08T22:20:01.631Z,-1.50
2023-02-08T22:22:31.162Z,-1.60
2023-02-08T22:24:59.470Z,-1.60
2023-02-08T22:27:27.705Z,-1.60
2023-02-08T22:29:55.726Z,-1.60
2023-02-08T22:32:23.969Z,-1.60
2023-02-08T22:34:52.018Z,-1.60
2023-02-08T22:37:20.094Z,-1.60
2023-02-08T22:39:49.549Z,-1.60
2023-02-08T22:42:17.682Z,-1.70
2023-02-08T22:44:46.070Z,-1.70
2023-02-08T22:47:14.996Z,-1.70
2023-02-08T22:49:43.297Z,-1.70
2023-02-08T22:52:12.094Z,-1.70
2023-02-08T22:54:40.072Z,-1.70
2023-02-08T22:57:10.458Z,-1.70
2023-02-08T22:59:39.207Z,-1.70
2023-02-08T23:02:07.453Z,-1.80
2023-02-08T23:04:37.174Z,-1.70
2023-02-08T23:07:05.520Z,-1.70
2023-02-08T23:09:33.505Z,-1.80
2023-02-08T23:12:01.551Z,-1.80
2023-02-08T23:14:30.937Z,-1.80
2023-02-08T23:16:58.899Z,-1.80
2023-02-08T23:19:27.103Z,-1.80
2023-02-08T23:21:55.096Z,-1.80
2023-02-08T23:24:23.049Z,-1.80
2023-02-08T23:26:51.008Z,-1.80
2023-02-08T23:29:18.965Z,-1.80
2023-02-08T23:31:48.583Z,-1.80
2023-02-08T23:34:16.719Z,-1.90
2023-02-08T23:36:44.951Z,-1.90
2023-02-08T23:39:12.936Z,-1.90
2023-02-08T23:41:40.918Z,-1.90
2023-02-08T23:44:08.946Z,-1.90
2023-02-08T23:46:37.012Z,-1.90
2023-02-08T23:49:06.397Z,-1.90
2023-02-08T23:51:34.443Z,-2.00
2023-02-08T23:54:02.512Z,-1.90
2023-02-08T23:56:32.901Z,-1.90
2023-02-08T23:59:01.428Z,-2.00
